Time;durP1;ratioP1;P1;durP2;ratioP2;P2;SDS_P1;SDS_P2;PMS_P1;PMS_P2;Temp;Humidity;BMP_temperature;BMP_pressure;BME280_temperature;BME280_humidity;BME280_pressure;Samples;Min_cycle;Max_cycle;Signal;HPM_P1;HPM_P2
2020/12/11 00:02:24;;;;;;;18.15;9.38;;;6.80;99.90;;;;;;5055861;28;20024;-59
2020/12/11 00:04:50;;;;;;;13.43;9.20;;;6.80;99.90;;;;;;5086774;28;20478;-61
2020/12/11 00:07:15;;;;;;;11.85;8.70;;;6.80;99.90;;;;;;5089984;28;20032;-58
2020/12/11 00:09:41;;;;;;;14.40;8.40;;;6.80;99.90;;;;;;5082248;28;20028;-60
2020/12/11 00:12:06;;;;;;;12.25;7.82;;;6.80;99.90;;;;;;5082902;28;20064;-61
2020/12/11 00:14:32;;;;;;;9.75;7.20;;;6.90;99.90;;;;;;5063441;28;20746;-59
2020/12/11 00:16:58;;;;;;;11.35;6.82;;;6.90;99.90;;;;;;5059764;28;20037;-62
2020/12/11 00:19:24;;;;;;;9.13;6.47;;;6.90;99.90;;;;;;5075200;28;20025;-60
2020/12/11 00:21:50;;;;;;;8.05;5.93;;;6.90;99.90;;;;;;5072204;28;20024;-60
2020/12/11 00:24:16;;;;;;;12.77;7.07;;;6.90;99.90;;;;;;5079650;28;20032;-59
2020/12/11 00:26:42;;;;;;;9.82;6.70;;;6.90;99.90;;;;;;5082769;28;20029;-60
2020/12/11 00:29:08;;;;;;;7.63;6.10;;;6.90;99.90;;;;;;5060265;28;20082;-59
2020/12/11 00:31:33;;;;;;;9.50;6.07;;;6.90;99.90;;;;;;5062227;28;20036;-60
2020/12/11 00:33:59;;;;;;;12.18;5.95;;;6.90;99.90;;;;;;5053009;28;20033;-59
2020/12/11 00:36:25;;;;;;;10.15;5.82;;;6.90;99.90;;;;;;5061494;28;20025;-58
2020/12/11 00:38:52;;;;;;;11.82;5.60;;;6.90;99.90;;;;;;5071565;28;20040;-61
2020/12/11 00:41:18;;;;;;;9.70;6.20;;;7.00;99.90;;;;;;5077508;28;20050;-60
2020/12/11 00:43:44;;;;;;;11.32;6.50;;;7.00;99.90;;;;;;5069006;28;20036;-61
2020/12/11 00:46:11;;;;;;;5.95;5.35;;;7.00;99.90;;;;;;5052661;28;20057;-59
2020/12/11 00:48:37;;;;;;;8.73;5.72;;;7.00;99.90;;;;;;5065743;28;20037;-60
2020/12/11 00:51:03;;;;;;;8.50;5.32;;;7.00;99.90;;;;;;5092928;28;20111;-60
2020/12/11 00:53:29;;;;;;;13.60;5.90;;;7.00;99.90;;;;;;5065968;28;20039;-60
2020/12/11 00:55:55;;;;;;;9.52;5.32;;;7.00;99.90;;;;;;5076028;28;20448;-60
2020/12/11 00:58:21;;;;;;;8.52;5.72;;;7.00;99.90;;;;;;5073769;28;20064;-60
2020/12/11 01:00:47;;;;;;;7.53;5.20;;;7.00;99.90;;;;;;5080017;28;20478;-59
2020/12/11 01:03:12;;;;;;;7.03;5.05;;;7.10;99.90;;;;;;5070657;28;20032;-60
2020/12/11 01:05:39;;;;;;;7.68;5.07;;;7.10;99.90;;;;;;5054698;28;20064;-60
2020/12/11 01:08:05;;;;;;;6.80;4.88;;;7.10;99.90;;;;;;5075305;28;20024;-59
2020/12/11 01:10:31;;;;;;;13.95;5.53;;;7.10;99.90;;;;;;5092160;28;20079;-60
2020/12/11 01:12:57;;;;;;;6.78;4.78;;;7.10;99.90;;;;;;5068878;28;20085;-60
2020/12/11 01:15:23;;;;;;;9.60;5.55;;;7.20;99.90;;;;;;5091737;28;20032;-61
2020/12/11 01:17:49;;;;;;;5.93;4.57;;;7.20;99.90;;;;;;5071586;28;20114;-60
2020/12/11 01:20:15;;;;;;;5.93;4.50;;;7.20;99.90;;;;;;5071242;28;20041;-59
2020/12/11 01:22:41;;;;;;;9.00;4.38;;;7.20;99.90;;;;;;5074927;28;20487;-60
2020/12/11 01:25:07;;;;;;;6.10;4.50;;;7.30;99.90;;;;;;5071196;28;20035;-59
2020/12/11 01:27:32;;;;;;;5.10;3.92;;;7.30;99.90;;;;;;5076828;28;20552;-61
2020/12/11 01:29:58;;;;;;;5.35;4.20;;;7.30;99.90;;;;;;5071181;28;20104;-60
2020/12/11 01:32:24;;;;;;;6.35;4.40;;;7.30;99.90;;;;;;5077058;28;20028;-59
2020/12/11 01:34:49;;;;;;;5.20;3.75;;;7.40;99.90;;;;;;5067563;28;20029;-61
2020/12/11 01:37:15;;;;;;;5.70;4.20;;;7.30;99.90;;;;;;5072323;28;20020;-59
2020/12/11 01:39:41;;;;;;;6.97;4.30;;;7.30;99.90;;;;;;5058995;28;20037;-59
2020/12/11 01:42:13;;;;;;;9.27;4.47;;;7.30;99.90;;;;;;5070785;28;20024;-60
2020/12/11 01:44:53;;;;;;;5.20;4.00;;;7.40;99.90;;;;;;5071359;28;20028;-60
2020/12/11 01:47:20;;;;;;;5.47;4.05;;;7.40;99.90;;;;;;5075926;28;20035;-60
2020/12/11 01:49:46;;;;;;;5.93;4.00;;;7.30;99.90;;;;;;5083786;28;20038;-60
2020/12/11 01:52:16;;;;;;;8.70;3.50;;;7.40;99.90;;;;;;5085156;28;20035;-59
2020/12/11 01:54:42;;;;;;;6.10;3.90;;;7.30;99.90;;;;;;5086893;28;20470;-60
2020/12/11 01:57:28;;;;;;;6.00;4.35;;;7.30;99.90;;;;;;5064988;28;20470;-60
2020/12/11 01:59:58;;;;;;;6.38;4.38;;;7.30;99.90;;;;;;5055545;28;20043;-60
2020/12/11 02:02:26;;;;;;;4.97;4.00;;;7.30;99.90;;;;;;5070963;28;20047;-60
2020/12/11 02:04:52;;;;;;;5.45;3.92;;;7.40;99.90;;;;;;5087445;28;20032;-59
2020/12/11 02:07:18;;;;;;;5.05;4.00;;;7.40;99.90;;;;;;5070768;28;20028;-61
2020/12/11 02:09:44;;;;;;;5.82;4.20;;;7.40;99.90;;;;;;5070816;28;20374;-59
2020/12/11 02:12:10;;;;;;;5.68;3.85;;;7.40;99.90;;;;;;5070821;28;20117;-60
2020/12/11 02:14:36;;;;;;;5.85;3.78;;;7.40;99.90;;;;;;5064583;28;20020;-60
2020/12/11 02:17:04;;;;;;;7.60;4.18;;;7.50;99.90;;;;;;5084021;28;20066;-59
2020/12/11 02:19:32;;;;;;;5.88;3.63;;;7.50;99.90;;;;;;5070555;28;20103;-60
2020/12/11 02:22:03;;;;;;;6.20;3.63;;;7.50;99.90;;;;;;5070881;28;20025;-61
2020/12/11 02:24:29;;;;;;;4.50;3.53;;;7.50;99.90;;;;;;5070672;28;20039;-61
2020/12/11 02:26:57;;;;;;;4.45;3.67;;;7.60;99.90;;;;;;5070698;28;20021;-60
2020/12/11 02:29:23;;;;;;;4.88;3.58;;;7.60;99.90;;;;;;5069961;28;20359;-60
2020/12/11 02:31:49;;;;;;;4.63;3.50;;;7.60;99.90;;;;;;5082516;28;20036;-61
2020/12/11 02:34:15;;;;;;;5.32;3.42;;;7.60;99.90;;;;;;5064179;28;20465;-60
2020/12/11 02:36:41;;;;;;;3.80;3.25;;;7.60;99.90;;;;;;5091470;28;20031;-60
2020/12/11 02:39:06;;;;;;;5.15;3.40;;;7.60;99.90;;;;;;5076113;28;20028;-60
2020/12/11 02:41:32;;;;;;;4.13;3.10;;;7.60;99.90;;;;;;5091238;28;20439;-61
2020/12/11 02:43:58;;;;;;;4.57;3.00;;;7.60;99.90;;;;;;5079322;28;20040;-61
2020/12/11 02:46:24;;;;;;;3.60;3.20;;;7.60;99.90;;;;;;5092849;28;20062;-61
2020/12/11 02:48:49;;;;;;;3.42;3.13;;;7.60;99.90;;;;;;5069361;28;20029;-58
2020/12/11 02:51:15;;;;;;;3.08;2.78;;;7.70;99.90;;;;;;5074882;28;20035;-61
2020/12/11 02:53:41;;;;;;;4.85;2.55;;;7.70;99.90;;;;;;5085168;28;20028;-57
2020/12/11 02:56:06;;;;;;;3.50;2.40;;;7.70;99.90;;;;;;5074346;28;20103;-60
2020/12/11 02:58:32;;;;;;;2.67;2.47;;;7.70;99.90;;;;;;5083528;28;20095;-61
2020/12/11 03:00:58;;;;;;;2.90;2.60;;;7.70;99.90;;;;;;5079850;28;20087;-61
2020/12/11 03:03:24;;;;;;;2.88;2.45;;;7.70;99.90;;;;;;5078611;28;20478;-62
2020/12/11 03:05:49;;;;;;;2.50;2.30;;;7.70;99.90;;;;;;5088208;28;20028;-59
2020/12/11 03:08:15;;;;;;;2.30;2.10;;;7.80;99.90;;;;;;5087850;28;20431;-59
2020/12/11 03:10:41;;;;;;;2.33;2.10;;;7.80;99.90;;;;;;5092742;28;20131;-60
2020/12/11 03:13:06;;;;;;;2.65;2.20;;;7.80;99.90;;;;;;5084941;28;20102;-59
2020/12/11 03:15:32;;;;;;;3.72;2.42;;;7.80;99.90;;;;;;5082264;28;20052;-60
2020/12/11 03:17:58;;;;;;;2.40;2.20;;;7.80;99.90;;;;;;5072790;28;20030;-60
2020/12/11 03:20:23;;;;;;;4.07;2.45;;;7.80;99.90;;;;;;5071932;28;20040;-60
2020/12/11 03:22:56;;;;;;;3.35;2.50;;;7.80;99.90;;;;;;5073456;28;20112;-59
2020/12/11 03:25:22;;;;;;;2.97;2.50;;;7.80;99.90;;;;;;5066251;28;20040;-60
2020/12/11 03:27:47;;;;;;;4.03;2.95;;;7.80;99.90;;;;;;5089069;28;20066;-60
2020/12/11 03:30:13;;;;;;;3.47;2.70;;;7.80;99.90;;;;;;5092046;28;20059;-60
2020/12/11 03:32:39;;;;;;;3.70;2.38;;;7.80;99.90;;;;;;5073944;28;20036;-59
2020/12/11 03:35:06;;;;;;;3.75;2.75;;;7.90;99.90;;;;;;5082613;28;20054;-60
2020/12/11 03:37:32;;;;;;;4.25;2.60;;;7.90;99.90;;;;;;5058016;28;20056;-60
2020/12/11 03:39:58;;;;;;;4.18;3.10;;;7.90;99.90;;;;;;5073237;28;20068;-60
2020/12/11 03:42:23;;;;;;;7.00;3.20;;;7.90;99.90;;;;;;5091055;28;20043;-59
2020/12/11 03:44:49;;;;;;;4.22;2.85;;;7.90;99.90;;;;;;5092705;28;20058;-60
2020/12/11 03:47:15;;;;;;;5.18;3.15;;;8.00;99.90;;;;;;5076678;28;20033;-60
2020/12/11 03:49:40;;;;;;;4.20;3.20;;;8.00;99.90;;;;;;5060769;28;20060;-60
2020/12/11 03:52:06;;;;;;;4.70;3.05;;;8.00;99.90;;;;;;5065497;28;20032;-60
2020/12/11 03:54:32;;;;;;;4.47;3.17;;;8.00;99.90;;;;;;5063098;28;20040;-60
2020/12/11 03:56:58;;;;;;;5.07;3.53;;;8.00;99.90;;;;;;5059424;28;20465;-60
2020/12/11 03:59:23;;;;;;;5.45;3.65;;;8.00;99.90;;;;;;5071900;28;20390;-62
2020/12/11 04:01:49;;;;;;;4.43;3.50;;;8.10;99.90;;;;;;5053708;28;20021;-60
2020/12/11 04:04:15;;;;;;;8.25;3.00;;;8.00;99.90;;;;;;5053786;28;20107;-62
2020/12/11 04:06:40;;;;;;;7.90;3.15;;;8.00;99.90;;;;;;5092664;28;20124;-60
2020/12/11 04:09:06;;;;;;;5.30;2.47;;;8.00;99.90;;;;;;5093695;28;20039;-61
2020/12/11 04:11:35;;;;;;;5.80;2.92;;;8.10;99.90;;;;;;5084571;28;20047;-59
2020/12/11 04:14:04;;;;;;;4.10;2.80;;;8.10;99.90;;;;;;5053507;28;20039;-61
2020/12/11 04:16:30;;;;;;;6.20;3.00;;;8.10;99.90;;;;;;5071176;28;20024;-60
2020/12/11 04:18:56;;;;;;;5.40;2.85;;;8.10;99.90;;;;;;5091959;28;20055;-60
2020/12/11 04:21:22;;;;;;;3.85;2.90;;;8.20;99.90;;;;;;5089507;28;20477;-60
2020/12/11 04:23:48;;;;;;;6.05;3.33;;;8.20;99.90;;;;;;5074930;28;20033;-59
2020/12/11 04:26:13;;;;;;;5.60;3.47;;;8.20;99.90;;;;;;5071441;28;20037;-61
2020/12/11 04:28:40;;;;;;;4.28;3.13;;;8.20;99.90;;;;;;5071279;28;20036;-59
2020/12/11 04:31:05;;;;;;;5.75;3.60;;;8.20;99.90;;;;;;5067216;28;20039;-59
2020/12/11 04:33:33;;;;;;;6.78;3.47;;;8.20;99.90;;;;;;5072863;28;20099;-59
2020/12/11 04:35:59;;;;;;;4.43;3.40;;;8.20;99.90;;;;;;5071245;28;20032;-59
2020/12/11 04:38:25;;;;;;;5.30;3.70;;;8.20;99.90;;;;;;5077520;28;20024;-59
2020/12/11 04:41:01;;;;;;;6.35;4.10;;;8.30;99.90;;;;;;5077657;28;20043;-61
2020/12/11 04:43:28;;;;;;;4.45;3.50;;;8.30;99.90;;;;;;5072778;28;20032;-62
2020/12/11 04:45:54;;;;;;;7.28;3.60;;;8.30;99.90;;;;;;5058882;28;20664;-61
2020/12/11 04:48:20;;;;;;;5.65;3.35;;;8.30;99.90;;;;;;5090477;28;20111;-60
2020/12/11 04:50:46;;;;;;;6.45;3.65;;;8.30;99.90;;;;;;5078599;28;20111;-60
2020/12/11 04:53:16;;;;;;;6.95;3.10;;;8.30;99.90;;;;;;5066866;28;20096;-60
2020/12/11 04:55:46;;;;;;;9.57;3.70;;;8.30;99.90;;;;;;5051585;28;20036;-60
2020/12/11 04:58:16;;;;;;;10.35;3.17;;;8.30;99.90;;;;;;5069875;28;20024;-60
2020/12/11 05:00:42;;;;;;;3.65;3.00;;;8.30;99.90;;;;;;5060175;28;20122;-59
2020/12/11 05:03:14;;;;;;;7.95;3.40;;;8.30;99.90;;;;;;5053003;28;20036;-60
2020/12/11 05:05:40;;;;;;;5.55;3.30;;;8.40;99.90;;;;;;5070291;28;20431;-61
2020/12/11 05:08:20;;;;;;;6.30;3.28;;;8.40;99.90;;;;;;5077732;28;20416;-60
2020/12/11 05:10:48;;;;;;;8.60;3.42;;;8.30;99.90;;;;;;5078424;28;20127;-60
2020/12/11 05:13:22;;;;;;;7.50;3.42;;;8.40;99.90;;;;;;5073305;28;20055;-59
2020/12/11 05:16:13;;;;;;;7.55;3.10;;;8.40;99.90;;;;;;5074630;28;20098;-60
2020/12/11 05:18:40;;;;;;;4.82;3.10;;;8.40;99.90;;;;;;5092136;28;20061;-61
2020/12/11 05:21:21;;;;;;;10.15;3.35;;;8.40;99.90;;;;;;5073476;28;20040;-60
2020/12/11 05:24:13;;;;;;;7.40;3.13;;;8.50;99.90;;;;;;5075052;28;20068;-60
2020/12/11 05:26:39;;;;;;;6.47;3.70;;;8.50;99.90;;;;;;5067762;28;20504;-60
2020/12/11 05:29:05;;;;;;;7.45;3.10;;;8.40;99.90;;;;;;5072438;28;20060;-59
2020/12/11 05:31:31;;;;;;;7.85;3.50;;;8.40;99.90;;;;;;5070350;28;20024;-59
2020/12/11 05:34:10;;;;;;;6.97;3.05;;;8.40;99.90;;;;;;5072282;28;20389;-59
2020/12/11 05:36:49;;;;;;;11.23;3.70;;;8.40;99.90;;;;;;5071613;28;20499;-59
2020/12/11 05:39:30;;;;;;;7.57;3.53;;;8.50;99.90;;;;;;5065562;28;20025;-59
2020/12/11 05:41:56;;;;;;;9.43;3.28;;;8.50;99.90;;;;;;5080896;28;20031;-60
2020/12/11 05:44:30;;;;;;;8.93;3.15;;;8.50;99.90;;;;;;5066537;28;20025;-60
2020/12/11 05:46:57;;;;;;;7.50;3.30;;;8.50;99.90;;;;;;5072687;28;20119;-60
2020/12/11 05:49:27;;;;;;;9.10;3.28;;;8.50;99.90;;;;;;5069570;28;20031;-61
2020/12/11 05:52:09;;;;;;;7.07;2.80;;;8.50;99.90;;;;;;5070930;28;20040;-59
2020/12/11 05:54:43;;;;;;;6.60;2.90;;;8.50;99.90;;;;;;5075600;28;20020;-59
2020/12/11 05:57:10;;;;;;;6.73;2.50;;;8.50;99.90;;;;;;5090955;28;20048;-60
2020/12/11 05:59:37;;;;;;;7.47;2.92;;;8.50;99.90;;;;;;5070404;28;20275;-61
2020/12/11 06:02:03;;;;;;;7.65;2.97;;;8.50;99.90;;;;;;5077492;28;20043;-60
2020/12/11 06:04:29;;;;;;;6.72;2.58;;;8.50;99.90;;;;;;5089025;28;20481;-60
2020/12/11 06:06:57;;;;;;;5.32;2.60;;;8.50;99.90;;;;;;5073968;28;20024;-60
2020/12/11 06:09:37;;;;;;;13.18;5.20;;;8.60;99.90;;;;;;5075389;28;20478;-60
2020/12/11 06:12:05;;;;;;;4.05;2.50;;;8.60;99.90;;;;;;5061842;28;20071;-60
2020/12/11 06:14:43;;;;;;;4.53;2.08;;;8.60;99.90;;;;;;5070854;28;20028;-59
2020/12/11 06:17:10;;;;;;;6.13;2.25;;;8.60;99.90;;;;;;5088792;28;20032;-58
2020/12/11 06:19:39;;;;;;;7.15;2.30;;;8.60;99.90;;;;;;5061041;28;20040;-59
2020/12/11 06:22:08;;;;;;;8.25;2.50;;;8.60;99.90;;;;;;5057582;28;20029;-60
2020/12/11 06:24:34;;;;;;;5.38;2.00;;;8.60;99.90;;;;;;5072255;28;20097;-59
2020/12/11 06:27:02;;;;;;;3.33;2.20;;;8.60;99.90;;;;;;5078712;28;20516;-59
2020/12/11 06:29:33;;;;;;;3.85;1.80;;;8.60;99.90;;;;;;5074252;28;20028;-60
2020/12/11 06:31:59;;;;;;;4.32;2.10;;;8.60;99.90;;;;;;5054607;28;20091;-60
2020/12/11 06:34:25;;;;;;;3.28;1.88;;;8.60;99.90;;;;;;5069689;28;20036;-59
2020/12/11 06:36:56;;;;;;;2.30;1.60;;;8.60;99.90;;;;;;5077479;28;20032;-60
2020/12/11 06:39:46;;;;;;;2.80;1.77;;;8.60;99.90;;;;;;5066283;28;20031;-59
2020/12/11 06:42:39;;;;;;;3.08;1.75;;;8.60;99.90;;;;;;5061932;28;20131;-58
2020/12/11 06:45:25;;;;;;;2.35;1.45;;;8.60;99.90;;;;;;5072932;28;20035;-61
2020/12/11 06:47:54;;;;;;;4.18;1.88;;;8.60;99.90;;;;;;5078546;28;20039;-60
2020/12/11 06:50:22;;;;;;;6.43;2.10;;;8.60;99.90;;;;;;5077048;28;20133;-59
2020/12/11 06:52:48;;;;;;;5.65;2.00;;;8.60;99.90;;;;;;5080756;28;20040;-60
2020/12/11 06:55:14;;;;;;;5.50;1.60;;;8.60;99.90;;;;;;5075033;28;20032;-60
2020/12/11 06:57:41;;;;;;;2.67;1.30;;;8.60;99.90;;;;;;5081651;28;20093;-60
2020/12/11 07:00:24;;;;;;;4.35;1.63;;;8.60;99.90;;;;;;5087799;28;20041;-60
2020/12/11 07:03:16;;;;;;;8.35;3.53;;;8.60;99.90;;;;;;5072461;28;20474;-59
2020/12/11 07:05:42;;;;;;;3.05;1.38;;;8.70;99.90;;;;;;5057493;28;20037;-59
2020/12/11 07:08:16;;;;;;;3.05;1.70;;;8.70;99.90;;;;;;5068209;28;20111;-58
2020/12/11 07:10:46;;;;;;;2.58;1.48;;;8.70;99.90;;;;;;5053235;28;20147;-60
2020/12/11 07:13:12;;;;;;;9.02;1.85;;;8.70;99.90;;;;;;5073289;28;20031;-59
2020/12/11 07:15:38;;;;;;;5.93;1.77;;;8.70;99.90;;;;;;5059539;28;20417;-60
2020/12/11 07:18:12;;;;;;;5.03;1.90;;;8.70;99.90;;;;;;5078944;28;20036;-61
2020/12/11 07:20:38;;;;;;;4.07;1.58;;;8.70;99.90;;;;;;5076407;28;20032;-61
2020/12/11 07:23:04;;;;;;;8.68;2.65;;;8.70;99.90;;;;;;5079469;28;20039;-60
2020/12/11 07:25:32;;;;;;;6.07;2.53;;;8.70;99.90;;;;;;5071916;28;20017;-59
2020/12/11 07:28:02;;;;;;;4.35;2.45;;;8.80;99.90;;;;;;5073870;28;20036;-60
2020/12/11 07:30:28;;;;;;;8.80;3.08;;;8.80;99.90;;;;;;5078031;28;20362;-60
2020/12/11 07:32:55;;;;;;;9.25;2.70;;;8.80;99.90;;;;;;5080288;28;20082;-59
2020/12/11 07:35:24;;;;;;;13.23;3.90;;;8.80;99.90;;;;;;5073185;28;20031;-60
2020/12/11 07:37:54;;;;;;;5.40;3.10;;;8.80;99.90;;;;;;5056799;28;20482;-60
2020/12/11 07:40:21;;;;;;;10.07;3.58;;;8.80;99.90;;;;;;5080107;28;20036;-59
2020/12/11 07:42:48;;;;;;;6.38;3.92;;;8.80;99.90;;;;;;5082901;28;20474;-59
2020/12/11 07:45:35;;;;;;;6.30;4.00;;;8.80;99.90;;;;;;5064965;28;20107;-60
2020/12/11 07:48:01;;;;;;;14.68;3.90;;;8.90;99.90;;;;;;5061729;28;20105;-60
2020/12/11 07:50:28;;;;;;;11.27;4.90;;;8.90;99.90;;;;;;5071879;28;20064;-60
2020/12/11 07:52:58;;;;;;;9.23;4.88;;;9.00;99.90;;;;;;5073909;28;20554;-57
2020/12/11 07:55:28;;;;;;;9.20;4.90;;;9.00;99.90;;;;;;5059651;28;20139;-59
2020/12/11 07:57:58;;;;;;;12.43;5.57;;;9.00;99.90;;;;;;5073976;28;20028;-61
2020/12/11 08:00:25;;;;;;;16.30;5.35;;;9.00;99.90;;;;;;5068452;28;20071;-61
2020/12/11 08:03:05;;;;;;;10.40;5.55;;;9.00;99.90;;;;;;5069426;28;20028;-59
2020/12/11 08:05:32;;;;;;;11.50;5.53;;;9.00;99.90;;;;;;5074163;28;20505;-60
2020/12/11 08:07:59;;;;;;;11.40;6.15;;;9.10;99.90;;;;;;5054435;28;20085;-61
2020/12/11 08:10:34;;;;;;;12.90;7.18;;;9.10;99.90;;;;;;5034934;28;676618;-60
2020/12/11 08:13:20;;;;;;;14.73;7.50;;;9.00;99.90;;;;;;5060458;28;20040;-61
2020/12/11 08:15:45;;;;;;;15.73;8.10;;;9.10;99.90;;;;;;5060256;28;20093;-59
2020/12/11 08:18:26;;;;;;;14.93;8.50;;;9.10;99.90;;;;;;5063202;28;20107;-60
2020/12/11 08:20:54;;;;;;;14.70;7.68;;;9.10;99.90;;;;;;5069532;28;20469;-60
2020/12/11 08:23:36;;;;;;;21.58;8.85;;;9.10;99.90;;;;;;5070452;28;20021;-60
2020/12/11 08:26:14;;;;;;;14.65;8.63;;;9.20;99.90;;;;;;5066230;28;20060;-62
2020/12/11 08:28:45;;;;;;;14.52;9.20;;;9.20;99.90;;;;;;5053712;28;20036;-61
2020/12/11 08:31:20;;;;;;;17.73;10.20;;;9.20;99.90;;;;;;5069016;28;20536;-60
2020/12/11 08:33:48;;;;;;;18.02;9.32;;;9.20;99.90;;;;;;5059131;28;20033;-61
2020/12/11 08:36:27;;;;;;;20.35;9.15;;;9.20;99.90;;;;;;5059746;28;20032;-60
2020/12/11 08:39:16;;;;;;;19.77;10.23;;;9.20;99.90;;;;;;5053596;28;20065;-59
2020/12/11 08:42:06;;;;;;;21.17;9.52;;;9.20;99.90;;;;;;5061339;28;21329;-60
2020/12/11 08:44:45;;;;;;;22.20;9.50;;;9.20;99.90;;;;;;5053827;28;20087;-60
2020/12/11 08:52:31;;;;;;;32.08;12.38;;;9.20;99.90;;;;;;5054941;28;20044;-61
2020/12/11 08:54:57;;;;;;;19.83;10.77;;;9.20;99.90;;;;;;5056437;28;20040;-61
2020/12/11 08:57:27;;;;;;;28.52;12.85;;;9.20;99.90;;;;;;5068521;28;20031;-61
2020/12/11 08:59:53;;;;;;;27.17;12.18;;;9.30;99.90;;;;;;5066420;28;20048;-61
2020/12/11 09:02:19;;;;;;;22.95;11.63;;;9.30;99.90;;;;;;5056559;28;20029;-60
2020/12/11 09:04:44;;;;;;;23.67;11.50;;;9.30;99.90;;;;;;5053805;28;20502;-59
2020/12/11 09:07:11;;;;;;;21.55;12.60;;;9.20;99.90;;;;;;5064938;28;20059;-61
2020/12/11 09:09:37;;;;;;;23.88;12.68;;;9.20;99.90;;;;;;5051859;28;20467;-60
2020/12/11 09:12:03;;;;;;;34.78;12.75;;;9.20;99.90;;;;;;5074775;28;20113;-60
2020/12/11 09:14:33;;;;;;;27.90;13.75;;;9.20;99.90;;;;;;5076486;28;20099;-59
2020/12/11 09:16:59;;;;;;;26.20;13.13;;;9.20;99.90;;;;;;5070877;28;20493;-60
2020/12/11 09:19:25;;;;;;;24.05;12.20;;;9.20;99.90;;;;;;5079893;28;20035;-60
2020/12/11 09:21:50;;;;;;;31.83;14.10;;;9.30;99.90;;;;;;5075075;28;20047;-61
2020/12/11 09:24:16;;;;;;;29.85;13.73;;;9.30;99.90;;;;;;5063664;28;20040;-60
2020/12/11 09:26:42;;;;;;;28.65;13.90;;;9.30;99.90;;;;;;5074220;28;20029;-61
2020/12/11 09:31:38;;;;;;;21.98;12.45;;;9.30;99.90;;;;;;5061890;28;20032;-59
2020/12/11 09:34:03;;;;;;;28.95;13.57;;;9.40;99.90;;;;;;5075082;28;20111;-60
2020/12/11 09:36:29;;;;;;;23.85;13.25;;;9.50;99.90;;;;;;5071384;28;20577;-60
2020/12/11 09:38:55;;;;;;;32.42;14.63;;;9.50;99.90;;;;;;5081766;28;20025;-60
2020/12/11 09:41:33;;;;;;;27.08;13.68;;;9.50;99.90;;;;;;5074774;28;20041;-60
2020/12/11 09:46:47;;;;;;;30.70;14.82;;;9.50;99.90;;;;;;5088538;28;20032;-60
2020/12/11 09:49:39;;;;;;;33.67;14.30;;;9.50;99.90;;;;;;5077400;28;20029;-62
2020/12/11 09:52:16;;;;;;;25.25;13.18;;;9.60;99.90;;;;;;5055311;28;20040;-59
2020/12/11 09:54:41;;;;;;;27.08;12.65;;;9.60;99.90;;;;;;5058947;28;20698;-59
2020/12/11 09:57:07;;;;;;;30.05;13.00;;;9.70;99.90;;;;;;5062852;28;20057;-60
2020/12/11 09:59:36;;;;;;;52.55;26.80;;;9.70;99.90;;;;;;5059506;28;20429;-62
2020/12/11 10:02:12;;;;;;;28.35;13.55;;;9.70;99.90;;;;;;5066538;28;20043;-60
2020/12/11 10:04:38;;;;;;;32.53;14.27;;;9.80;99.90;;;;;;5054828;28;20060;-60
2020/12/11 10:07:04;;;;;;;23.77;13.38;;;9.80;99.90;;;;;;5051780;28;20428;-61
2020/12/11 10:09:29;;;;;;;22.02;13.13;;;9.80;99.90;;;;;;5060967;28;20478;-60
2020/12/11 10:11:56;;;;;;;29.48;14.75;;;9.80;99.90;;;;;;5054439;28;20049;-61
2020/12/11 10:14:38;;;;;;;34.22;13.90;;;9.80;99.90;;;;;;5064290;28;20036;-61
2020/12/11 10:17:04;;;;;;;25.35;13.80;;;9.80;99.90;;;;;;5065661;28;20036;-60
2020/12/11 10:19:29;;;;;;;26.65;13.77;;;9.80;99.90;;;;;;5052126;28;20123;-62
2020/12/11 10:21:55;;;;;;;27.83;12.90;;;9.90;99.90;;;;;;5066728;28;20036;-61
2020/12/11 10:24:22;;;;;;;26.75;13.13;;;9.90;99.90;;;;;;5055645;28;20028;-60
2020/12/11 10:26:49;;;;;;;30.05;12.95;;;9.90;99.90;;;;;;5057445;28;20033;-60
2020/12/11 10:29:15;;;;;;;39.83;14.50;;;9.90;99.90;;;;;;5064348;28;20029;-59
2020/12/11 10:31:44;;;;;;;33.63;13.25;;;9.90;99.90;;;;;;5078656;28;20054;-61
2020/12/11 10:34:14;;;;;;;26.30;11.77;;;10.00;99.90;;;;;;5090536;28;20107;-60
2020/12/11 10:36:41;;;;;;;28.73;11.82;;;9.90;99.90;;;;;;5087998;28;20024;-60
2020/12/11 10:39:07;;;;;;;25.40;12.00;;;9.90;99.90;;;;;;5049301;28;20044;-60
2020/12/11 10:41:34;;;;;;;28.67;12.45;;;9.90;99.90;;;;;;5054857;28;20037;-61
2020/12/11 10:43:59;;;;;;;24.98;12.05;;;9.90;99.90;;;;;;5064111;28;20024;-59
2020/12/11 10:46:25;;;;;;;27.50;12.50;;;10.00;99.90;;;;;;5063798;28;20475;-61
2020/12/11 10:48:51;;;;;;;31.45;11.60;;;10.00;99.90;;;;;;5062949;28;20033;-60
2020/12/11 10:51:18;;;;;;;30.25;12.18;;;10.00;99.90;;;;;;5071146;28;20037;-60
2020/12/11 10:53:45;;;;;;;28.45;12.18;;;10.10;99.90;;;;;;5058912;28;20367;-58
2020/12/11 10:56:12;;;;;;;25.48;12.10;;;10.10;99.90;;;;;;5080789;28;20028;-60
2020/12/11 10:58:38;;;;;;;33.70;13.38;;;10.20;99.90;;;;;;5069145;28;20389;-61
2020/12/11 11:01:09;;;;;;;29.05;12.10;;;10.20;99.90;;;;;;5055448;28;20040;-61
2020/12/11 11:03:35;;;;;;;31.40;12.07;;;10.20;99.90;;;;;;5075972;28;20028;-60
2020/12/11 11:06:13;;;;;;;26.75;12.52;;;10.20;99.90;;;;;;5078042;28;20024;-61
2020/12/11 11:11:27;;;;;;;29.87;11.43;;;10.30;99.90;;;;;;5073756;28;20141;-60
2020/12/11 11:29:56;;;;;;;27.92;10.40;;;10.60;99.90;;;;;;5042404;28;20047;-60
2020/12/11 11:32:22;;;;;;;27.63;10.20;;;10.60;99.90;;;;;;5072987;28;20020;-61
2020/12/11 11:34:47;;;;;;;26.45;9.88;;;10.50;99.90;;;;;;5078555;28;20085;-61
2020/12/11 11:37:14;;;;;;;32.38;10.02;;;10.50;99.90;;;;;;5080792;28;20032;-60
2020/12/11 11:39:40;;;;;;;30.90;10.90;;;10.50;99.90;;;;;;5077388;28;20020;-60
2020/12/11 11:42:05;;;;;;;24.17;9.00;;;10.60;99.90;;;;;;5072484;28;20416;-60
2020/12/11 11:45:06;;;;;;;26.77;8.70;;;10.60;99.90;;;;;;5071577;28;20474;-62
2020/12/11 11:47:24;;;;;;;29.30;8.52;;;10.60;99.90;;;;;;5069067;28;20072;-61
2020/12/11 11:49:56;;;;;;;30.40;8.25;;;10.70;99.90;;;;;;5070169;28;20104;-60
2020/12/11 11:53:23;;;;;;;26.92;7.65;;;10.70;99.90;;;;;;5070404;28;20032;-60
2020/12/11 11:55:18;;;;;;;24.13;7.65;;;10.70;99.90;;;;;;5070089;28;20044;-61
2020/12/11 11:57:43;;;;;;;34.08;7.00;;;10.80;99.90;;;;;;5072154;28;20070;-60
2020/12/11 12:00:10;;;;;;;23.02;6.60;;;10.70;99.90;;;;;;5067084;28;20041;-60
2020/12/11 12:02:37;;;;;;;24.90;6.32;;;10.80;99.90;;;;;;5072127;28;20020;-61
2020/12/11 12:05:05;;;;;;;26.38;6.82;;;10.80;99.90;;;;;;5061646;28;20098;-60
2020/12/11 12:07:32;;;;;;;23.23;5.63;;;10.80;99.90;;;;;;5069808;28;20036;-60
2020/12/11 12:09:58;;;;;;;24.95;6.50;;;10.80;99.90;;;;;;5052257;28;20052;-60
2020/12/11 12:12:24;;;;;;;25.63;6.05;;;10.80;99.90;;;;;;5067200;28;20486;-60
2020/12/11 12:14:51;;;;;;;20.05;5.78;;;10.80;99.90;;;;;;5065691;28;20120;-59
2020/12/11 12:17:28;;;;;;;23.38;6.55;;;10.90;99.90;;;;;;5069626;28;20085;-57
2020/12/11 12:19:58;;;;;;;33.70;6.93;;;10.80;99.90;;;;;;5073813;28;20482;-59
2020/12/11 12:28:22;;;;;;;30.08;6.15;;;10.90;99.90;;;;;;5071935;28;20039;-61
2020/12/11 12:30:38;;;;;;;28.80;6.32;;;10.90;99.90;;;;;;5072376;28;20060;-59
2020/12/11 12:38:48;;;;;;;34.92;7.43;;;10.90;99.90;;;;;;5052915;28;20044;-59
2020/12/11 12:43:58;;;;;;;38.75;7.10;;;10.80;99.90;;;;;;5068122;28;20059;-59
2020/12/11 12:46:25;;;;;;;34.00;6.88;;;10.80;99.90;;;;;;5069286;28;20071;-60
2020/12/11 12:48:51;;;;;;;36.00;7.05;;;10.90;99.90;;;;;;5070418;28;20033;-60
2020/12/11 12:51:17;;;;;;;34.67;6.20;;;10.90;99.90;;;;;;5071882;28;20017;-58
2020/12/11 12:53:43;;;;;;;42.70;7.43;;;10.80;99.90;;;;;;5068125;28;20033;-61
2020/12/11 12:58:59;;;;;;;35.60;6.90;;;10.90;99.90;;;;;;5066423;28;20032;-60
2020/12/11 13:01:46;;;;;;;37.55;6.65;;;10.90;99.90;;;;;;5070950;28;20036;-58
2020/12/11 13:06:47;;;;;;;35.35;6.45;;;10.90;99.90;;;;;;5070498;28;20071;-59
2020/12/11 13:09:14;;;;;;;30.85;6.57;;;10.80;99.90;;;;;;5074321;28;20052;-58
2020/12/11 13:11:40;;;;;;;34.95;7.63;;;10.90;99.90;;;;;;5085177;28;20073;-59
2020/12/11 13:14:05;;;;;;;41.60;7.68;;;10.90;99.90;;;;;;5075472;28;20021;-59
2020/12/11 13:16:31;;;;;;;32.03;7.50;;;10.90;99.90;;;;;;5073653;28;20041;-58
2020/12/11 13:18:58;;;;;;;32.42;8.60;;;10.90;99.90;;;;;;5082279;28;20477;-60
2020/12/11 13:21:30;;;;;;;41.65;8.80;;;10.80;99.90;;;;;;5085190;28;20043;-59
2020/12/11 13:29:09;;;;;;;31.70;8.75;;;10.90;99.90;;;;;;5063821;28;20467;-59
2020/12/11 13:31:35;;;;;;;31.83;9.02;;;10.80;99.90;;;;;;5054885;28;20423;-60
2020/12/11 13:34:01;;;;;;;38.25;8.35;;;10.80;99.90;;;;;;5053322;28;20025;-58
2020/12/11 13:36:26;;;;;;;26.63;8.07;;;10.80;99.90;;;;;;5065157;28;20027;-60
2020/12/11 13:38:52;;;;;;;25.75;7.97;;;10.80;99.90;;;;;;5073269;28;20398;-60
2020/12/11 13:41:18;;;;;;;29.25;8.48;;;10.80;99.90;;;;;;5074858;28;20776;-60
2020/12/11 13:43:44;;;;;;;28.02;7.80;;;10.80;99.90;;;;;;5058252;28;20029;-60
2020/12/11 13:46:09;;;;;;;25.00;8.23;;;10.70;99.90;;;;;;5063265;28;20109;-58
2020/12/11 13:48:35;;;;;;;28.80;7.72;;;10.80;99.90;;;;;;5071768;28;20388;-61
2020/12/11 13:51:01;;;;;;;21.00;6.53;;;10.80;99.90;;;;;;5057611;28;20024;-60